EW3721 Weather Reports


Display with metric or nautical units.
time (UTC)temp
F
wind
direction
speed
MPH
gust
MPH
rain 1hr
in
rain 24hr
in
rain mn
in
humidity
%
barometer
mb
20210622234148 61 255 2.0 3.0 0.05 0.24 0.24 94 1008.2
20210622233147 61 248 3.0 8.0 0.05 0.24 0.24 94 1007.9
20210622232147 61 213 2.0 10.0 0.05 0.23 0.23 94 1007.2
20210622231148 62 253 0.0 3.0 0.04 0.22 0.22 94 1006.9
20210622230148 62 250 2.0 3.0 0.03 0.21 0.21 94 1006.1
20210622225148 63 0 1.0 2.0 0.02 0.20 0.20 95 1006.1
20210622224148 63 172 0.0 3.0 0.01 0.19 0.19 95 1006.2
20210622223147 63 126 1.0 3.0 0.02 0.19 0.19 95 1006.4
20210622222148 63 116 2.0 5.0 0.01 0.18 0.18 95 1006.8
20210622221146 63 103 0.0 3.0 0.02 0.18 0.18 95 1007.1
20210622220147 63 119 1.0 3.0 0.02 0.18 0.18 95 1007.3
20210622215148 63 250 0.0 2.0 0.02 0.18 0.18 95 1007.7
20210622214148 63 250 0.0 2.0 0.04 0.18 0.18 94 1007.6
20210622213146 63 231 2.0 3.0 0.03 0.17 0.17 94 1008.5
20210622212146 63 174 2.0 5.0 0.03 0.17 0.17 94 1007.8
20210622211147 63 203 1.0 3.0 0.02 0.16 0.16 94 1007.8
20210622210148 63 223 0.0 2.0 0.02 0.16 0.16 94 1007.6
20210622205147 63 252 0.0 5.0 0.02 0.16 0.16 94 1007.1
20210622204147 63 128 1.0 7.0 0.00 0.14 0.14 94 1006.7
20210622203147 63 245 2.0 3.0 0.02 0.14 0.14 94 1006.9
20210622202146 63 259 1.0 3.0 0.03 0.14 0.14 94 1006.4
20210622201146 63 271 1.0 3.0 0.05 0.14 0.14 93 1006.6
20210622200149 63 273 2.0 5.0 0.09 0.14 0.14 93 1006.8
20210622195146 63 289 1.0 7.0 0.11 0.14 0.14 92 1006.8
20210622194146 63 44 2.0 9.0 0.11 0.14 0.14 92 1006.7
20210622193146 63 128 3.0 9.0 0.09 0.12 0.12 92 1006.8
20210622192146 63 113 2.0 7.0 0.08 0.11 0.11 91 1007.2
20210622191146 64 247 1.0 3.0 0.06 0.09 0.09 91 1007.1
20210622190149 64 247 1.0 3.0 0.02 0.05 0.05 90 1007.2
20210622185146 64 128 2.0 5.0 0.00 0.03 0.03 89 1006.7
20210622184146 64 128 2.0 7.0 0.00 0.03 0.03 89 1006.4
20210622183146 64 206 5.0 10.0 0.00 0.03 0.03 89 1006.1
20210622182145 65 128 4.0 12.0 0.01 0.03 0.03 88 1006.0
20210622181147 65 248 2.0 7.0 0.01 0.03 0.03 89 1006.2
20210622180147 66 251 0.0 5.0 0.03 0.03 0.03 90 1006.3
20210622175147 66 128 1.0 7.0 0.03 0.03 0.03 89 1006.3
20210622174146 66 92 1.0 8.0 0.03 0.03 0.03 89 1006.1
20210622173146 67 128 2.0 7.0 0.03 0.03 0.03 87 1006.2
20210622172147 67 128 2.0 7.0 0.02 0.02 0.02 85 1006.3
20210622171146 68 254 4.0 10.0 0.02 0.02 0.02 82 1006.5
20210622170149 69 248 3.0 14.0 0.00 0.00 0.00 77 1006.7
20210622165146 71 272 5.0 12.0 0.00 0.00 0.00 77 1006.7
20210622164145 72 117 1.0 8.0 0.00 0.00 0.00 77 1006.8
20210622163147 72 273 3.0 6.0 0.00 0.00 0.00 77 1006.5
20210622162145 73 170 2.0 10.0 0.00 0.00 0.00 77 1006.2
20210622161146 73 128 3.0 12.0 0.00 0.00 0.00 75 1006.1
20210622160149 74 120 2.0 8.0 0.00 0.00 0.00 76 1006.1
20210622155146 74 125 2.0 6.0 0.00 0.00 0.00 76 1006.0
20210622154147 74 298 2.0 5.0 0.00 0.00 0.00 77 1005.9
20210622153145 74 192 2.0 5.0 0.00 0.00 0.00 77 1005.8
20210622152146 75 128 3.0 7.0 0.00 0.00 0.00 76 1005.8
20210622151145 75 41 2.0 8.0 0.00 0.00 0.00 77 1005.8
20210622150148 76 118 1.0 9.0 0.00 0.00 0.00 76 1005.7
20210622145145 76 113 5.0 12.0 0.00 0.00 0.00 76 1005.7
20210622144145 76 248 4.0 10.0 0.00 0.00 0.00 78 1005.7
20210622143145 76 77 3.0 8.0 0.00 0.00 0.00 78 1005.6
20210622142144 77 124 2.0 8.0 0.00 0.00 0.00 76 1005.5
20210622141146 78 134 2.0 10.0 0.00 0.00 0.00 76 1005.4
20210622140146 79 83 1.0 3.0 0.00 0.00 0.00 80 1005.3
20210622135144 79 230 1.0 2.0 0.00 0.00 0.00 82 1005.3
20210622134145 78 228 0.0 3.0 0.00 0.00 0.00 83 1005.2
20210622133144 78 119 1.0 2.0 0.00 0.00 0.00 82 1005.2
20210622132145 78 126 0.0 2.0 0.00 0.00 0.00 86 1005.3
20210622131145 77 126 0.0 3.0 0.00 0.00 0.00 85 1005.2
20210622130146 76 127 1.0 3.0 0.00 0.00 0.00 87 1005.1
20210622125144 76 40 1.0 3.0 0.00 0.00 0.00 89 1005.2
20210622124144 75 249 0.0 6.0 0.00 0.00 0.00 91 1005.2
20210622123145 74 142 1.0 3.0 0.00 0.00 0.00 94 1005.1
20210622122146 73 164 1.0 3.0 0.00 0.00 0.00 95 1005.0
20210622121144 73 128 0.0 2.0 0.00 0.00 0.00 96 1004.9
20210622120145 72 128 1.0 3.0 0.00 0.00 0.00 96 1004.9
20210622115144 72 128 0.0 3.0 0.00 0.00 0.00 96 1004.7
20210622114145 72 128 2.0 5.0 0.00 0.00 0.00 97 1004.5
20210622113144 71 138 1.0 3.0 0.00 0.00 0.00 98 1004.5
20210622112144 70 222 1.0 2.0 0.00 0.00 0.00 97 1004.5
20210622111144 69 222 1.0 2.0 0.00 0.00 0.00 97 1004.5
20210622110146 69 222 0.0 1.0 0.00 0.00 0.00 97 1004.2
20210622105146 69 222 0.0 0.0 0.00 0.00 0.00 97 1004.1
20210622104144 69 222 0.0 0.0 0.00 0.00 0.00 97 1004.1
20210622103144 69 222 0.0 0.0 0.00 0.00 0.00 97 1004.1
20210622102145 69 222 0.0 1.0 0.00 0.00 0.00 96 1004.1
20210622101143 69 222 0.0 0.0 0.00 0.00 0.00 96 1003.8
20210622100146 69 222 0.0 1.0 0.00 0.00 0.00 96 1003.6
20210622095144 68 222 0.0 1.0 0.00 0.00 0.00 96 1003.4
20210622094143 68 222 0.0 1.0 0.00 0.00 0.00 96 1003.4
20210622093145 68 222 0.0 1.0 0.00 0.00 0.00 96 1003.1
20210622092144 68 222 1.0 3.0 0.00 0.00 0.00 96 1002.9
20210622091145 68 225 0.0 2.0 0.00 0.00 0.00 96 1002.9
20210622090145 68 225 0.0 2.0 0.00 0.00 0.00 96 1002.8
20210622085143 69 224 0.0 1.0 0.00 0.00 0.00 96 1002.6
20210622084145 69 224 0.0 1.0 0.00 0.00 0.00 96 1002.4
20210622083144 69 224 1.0 2.0 0.00 0.00 0.00 96 1002.4
20210622082144 69 224 0.0 0.0 0.00 0.00 0.00 95 1002.4
20210622081144 69 224 0.0 0.0 0.00 0.00 0.00 95 1002.7
20210622080145 69 224 0.0 1.0 0.00 0.00 0.00 95 1002.6
20210622075143 69 224 0.0 0.0 0.00 0.00 0.00 95 1002.8
20210622074143 69 224 0.0 1.0 0.00 0.00 0.00 95 1003.0
20210622073144 69 224 0.0 0.0 0.00 0.00 0.00 95 1002.8
20210622072143 69 224 0.0 1.0 0.00 0.00 0.00 95 1002.8
20210622071143 69 224 0.0 0.0 0.00 0.00 0.00 95 1002.6
20210622070145 69 224 1.0 1.0 0.00 0.00 0.00 95 1002.8
20210622065142 69 224 0.0 1.0 0.00 0.00 0.00 95 1002.8
20210622064144 70 224 0.0 0.0 0.00 0.00 0.00 95 1003.0
20210622063143 70 224 0.0 0.0 0.00 0.00 0.00 95 1003.1
20210622062143 70 224 0.0 0.0 0.00 0.00 0.00 95 1003.1
20210622061142 70 224 0.0 1.0 0.00 0.00 0.00 95 1002.9
20210622060144 70 224 0.0 1.0 0.00 0.00 0.00 95 1003.1
20210622055143 70 224 1.0 2.0 0.00 0.00 0.00 95 1003.1
20210622054144 70 224 0.0 1.0 0.00 0.00 0.00 94 1003.1
20210622053143 70 224 0.0 2.0 0.00 0.00 0.00 94 1003.1
20210622052142 70 224 1.0 2.0 0.00 0.00 0.00 94 1003.2
20210622051145 70 224 0.0 1.0 0.00 0.00 0.00 94 1003.2
20210622050145 70 224 0.0 0.0 0.00 0.00 0.00 94 1003.2
20210622045142 70 224 0.0 0.0 0.00 0.00 0.00 94 1003.2
20210622044144 70 224 0.0 2.0 0.00 0.00 0.00 94 1003.2
20210622043143 71 224 0.0 2.0 0.00 0.00 0.00 93 1003.1
20210622042143 71 224 0.0 1.0 0.00 0.00 0.00 93 1002.9
20210622041143 71 224 0.0 2.0 0.00 0.00 0.00 93 1003.0
20210622040145 71 224 1.0 2.0 0.00 0.00 0.00 93 1002.8
20210622035144 71 224 0.0 2.0 0.00 0.00 0.00 93 1003.0
20210622034144 71 224 0.0 2.0 0.00 0.00 0.00 93 1003.0
20210622033142 71 224 0.0 2.0 0.00 0.00 0.00 93 1003.2
20210622032143 71 224 1.0 3.0 0.00 0.00 0.00 93 1003.6
20210622031142 71 137 0.0 1.0 0.00 0.00 0.00 92 1003.3
20210622030144 72 137 0.0 2.0 0.00 0.00 0.00 92 1003.5
20210622025143 72 137 0.0 5.0 0.00 0.00 0.00 92 1003.7
20210622024142 72 184 0.0 2.0 0.00 0.00 0.00 92 1004.0
20210622023142 72 187 1.0 3.0 0.00 0.00 0.00 92 1004.1
20210622022142 72 219 1.0 3.0 0.00 0.00 0.00 91 1004.3
20210622021143 72 196 1.0 5.0 0.00 0.00 0.00 91 1004.1
20210622020145 73 159 1.0 5.0 0.00 0.00 0.00 91 1004.1
20210622015142 73 178 0.0 2.0 0.00 0.00 0.00 91 1004.1
20210622014142 73 179 0.0 3.0 0.00 0.00 0.00 91 1004.0
20210622013142 73 140 1.0 6.0 0.00 0.00 0.00 91 1003.9
20210622012142 73 180 1.0 3.0 0.00 0.00 0.00 91 1003.9
20210622011142 74 188 1.0 3.0 0.00 0.00 0.00 90 1003.7
20210622010143 74 240 1.0 5.0 0.00 0.00 0.00 90 1003.4
20210622005142 74 183 1.0 3.0 0.00 0.00 0.00 89 1003.4
20210622004141 74 179 1.0 3.0 0.00 0.00 0.00 88 1003.4
20210622003142 75 175 1.0 3.0 0.00 0.00 0.00 88 1003.2
20210622002141 75 169 1.0 3.0 0.00 0.00 0.00 87 1003.4
20210622001142 76 167 0.0 5.0 0.00 0.00 0.00 86 1003.3
20210622000143 76 178 2.0 3.0 0.00 0.00 0.00 85 1003.2
20210621235141 77 166 1.0 5.0 0.00 0.00 0.00 85 1003.0